createdAt,value
2022-11-23T00:01:21.111Z,7.99
2022-11-23T00:03:50.999Z,8.00
2022-11-23T00:06:21.939Z,8.02
2022-11-23T00:08:51.143Z,8.02
2022-11-23T00:11:21.214Z,8.03
2022-11-23T00:13:49.805Z,8.04
2022-11-23T00:16:20.129Z,8.03
2022-11-23T00:18:48.949Z,8.06
2022-11-23T00:21:18.879Z,8.08
2022-11-23T00:23:48.803Z,8.08
2022-11-23T00:26:18.734Z,8.09
2022-11-23T00:28:47.532Z,8.10
2022-11-23T00:31:17.506Z,8.10
2022-11-23T00:33:50.276Z,8.13
2022-11-23T00:36:19.326Z,8.14
2022-11-23T00:38:49.960Z,8.14
2022-11-23T00:41:21.401Z,8.15
2022-11-23T00:43:50.071Z,8.16
2022-11-23T00:46:20.838Z,8.17
2022-11-23T00:48:50.493Z,8.18
2022-11-23T00:51:21.392Z,8.20
2022-11-23T00:53:53.028Z,8.22
2022-11-23T00:56:21.879Z,8.24
2022-11-23T00:58:51.216Z,8.24
2022-11-23T01:01:21.157Z,8.25
2022-11-23T01:03:52.513Z,8.26
2022-11-23T01:06:23.018Z,8.27
2022-11-23T01:08:55.800Z,8.28
2022-11-23T01:11:25.620Z,8.29
2022-11-23T01:13:55.506Z,8.29
2022-11-23T01:16:26.893Z,8.31
2022-11-23T01:18:55.291Z,8.31
2022-11-23T01:21:25.966Z,8.32
2022-11-23T01:23:55.865Z,8.33
2022-11-23T01:26:24.837Z,8.33
2022-11-23T01:28:53.446Z,8.34
2022-11-23T01:31:26.582Z,8.37
2022-11-23T01:33:56.513Z,8.36
2022-11-23T01:36:26.760Z,8.37
2022-11-23T01:38:57.306Z,8.38
2022-11-23T01:41:29.507Z,8.39
2022-11-23T01:43:58.564Z,8.38
2022-11-23T01:46:27.168Z,8.41
2022-11-23T01:48:58.599Z,8.40
2022-11-23T01:51:30.060Z,8.42
2022-11-23T01:54:03.250Z,8.43
2022-11-23T01:56:38.184Z,8.43
2022-11-23T01:59:14.108Z,8.45
2022-11-23T02:01:42.831Z,8.46
2022-11-23T02:04:15.741Z,8.48
2022-11-23T02:06:49.009Z,8.48
2022-11-23T02:09:19.575Z,8.49
2022-11-23T02:11:48.023Z,8.51
2022-11-23T02:14:23.085Z,8.52
2022-11-23T02:16:51.883Z,8.53
2022-11-23T02:19:34.791Z,8.54
2022-11-23T02:22:08.943Z,8.53
2022-11-23T02:24:46.280Z,8.55
2022-11-23T02:27:17.486Z,8.55
2022-11-23T02:29:46.996Z,8.56
2022-11-23T02:32:20.714Z,8.58
2022-11-23T02:34:49.081Z,8.58
2022-11-23T02:37:18.674Z,8.59
2022-11-23T02:39:50.424Z,8.60
2022-11-23T02:42:20.356Z,8.61
2022-11-23T02:44:59.127Z,8.61
2022-11-23T02:47:27.583Z,8.62
2022-11-23T02:49:56.041Z,8.62
2022-11-23T02:52:24.471Z,8.63
2022-11-23T02:54:52.820Z,8.64
2022-11-23T02:57:22.518Z,8.65
2022-11-23T02:59:51.234Z,8.65
2022-11-23T03:02:19.612Z,8.66
2022-11-23T03:04:48.597Z,8.67
2022-11-23T03:07:20.127Z,8.67
2022-11-23T03:09:50.441Z,8.68
2022-11-23T03:12:21.770Z,8.68
2022-11-23T03:14:50.168Z,8.66
2022-11-23T03:17:19.609Z,8.66
2022-11-23T03:19:47.930Z,8.65
2022-11-23T03:22:16.525Z,8.64
2022-11-23T03:24:45.248Z,8.63
2022-11-23T03:27:17.401Z,8.61
2022-11-23T03:29:48.470Z,8.60
2022-11-23T03:32:21.063Z,8.58
2022-11-23T03:34:52.731Z,8.56
2022-11-23T03:37:22.805Z,8.55
2022-11-23T03:39:51.241Z,8.54
2022-11-23T03:42:57.911Z,8.52
2022-11-23T03:45:27.866Z,8.50
2022-11-23T03:47:56.238Z,8.49
2022-11-23T03:50:24.709Z,8.49
2022-11-23T03:52:53.101Z,8.48
2022-11-23T03:55:21.533Z,8.48
2022-11-23T03:57:50.262Z,8.47
2022-11-23T04:00:18.960Z,8.46
2022-11-23T04:02:49.274Z,8.45
2022-11-23T04:05:52.487Z,8.44
2022-11-23T04:08:43.431Z,8.42
2022-11-23T04:11:18.002Z,8.42
2022-11-23T04:13:49.610Z,8.41
2022-11-23T04:16:19.523Z,8.40
2022-11-23T04:18:49.259Z,8.40
2022-11-23T04:21:18.361Z,8.39
2022-11-23T04:23:46.955Z,8.39
2022-11-23T04:26:16.796Z,8.38
2022-11-23T04:28:47.644Z,8.37
2022-11-23T04:31:16.729Z,8.37
2022-11-23T04:33:55.835Z,8.35
2022-11-23T04:36:26.896Z,8.34
2022-11-23T04:38:55.813Z,8.33
2022-11-23T04:41:34.621Z,8.32
2022-11-23T04:44:04.041Z,8.32
2022-11-23T04:46:32.777Z,8.32
2022-11-23T04:49:03.159Z,8.31
2022-11-23T04:51:32.055Z,8.32
2022-11-23T04:54:01.413Z,8.31
2022-11-23T04:56:32.979Z,8.30
2022-11-23T04:59:01.338Z,8.30
2022-11-23T05:01:29.921Z,8.30
2022-11-23T05:04:38.204Z,8.30
2022-11-23T05:07:07.671Z,8.31
2022-11-23T05:09:37.507Z,8.30
2022-11-23T05:12:14.289Z,8.30
2022-11-23T05:14:43.347Z,8.30
2022-11-23T05:17:13.553Z,8.29
2022-11-23T05:19:45.404Z,8.29
2022-11-23T05:22:14.578Z,8.30
2022-11-23T05:24:44.318Z,8.30
2022-11-23T05:27:17.228Z,8.31
2022-11-23T05:29:46.643Z,8.31
2022-11-23T05:32:15.815Z,8.32
2022-11-23T05:34:45.853Z,8.31
2022-11-23T05:37:17.022Z,8.30
2022-11-23T05:39:57.858Z,8.30
2022-11-23T05:42:26.752Z,8.29
2022-11-23T05:44:58.209Z,8.29
2022-11-23T05:47:35.491Z,8.28
2022-11-23T05:50:09.792Z,8.28
2022-11-23T05:52:42.389Z,8.26
2022-11-23T05:55:10.797Z,8.26
2022-11-23T05:57:39.638Z,8.25
2022-11-23T06:00:10.546Z,8.25
2022-11-23T06:02:47.373Z,8.23
2022-11-23T06:05:17.447Z,8.23
2022-11-23T06:07:53.951Z,8.21
2022-11-23T06:10:27.754Z,8.20
2022-11-23T06:13:03.335Z,8.19
2022-11-23T06:15:32.112Z,8.18
2022-11-23T06:18:01.843Z,8.17
2022-11-23T06:20:39.806Z,8.14
2022-11-23T06:23:08.118Z,8.14
2022-11-23T06:25:38.417Z,8.13
2022-11-23T06:28:12.441Z,8.13
2022-11-23T06:30:47.068Z,8.13
2022-11-23T06:33:15.755Z,8.12
2022-11-23T06:35:55.750Z,8.12
2022-11-23T06:38:26.359Z,8.14
2022-11-23T06:41:05.421Z,8.13
2022-11-23T06:43:33.976Z,8.13
2022-11-23T06:46:06.114Z,8.12
2022-11-23T06:48:36.269Z,8.12
2022-11-23T06:51:07.329Z,8.12
2022-11-23T06:53:37.877Z,8.10
2022-11-23T06:56:09.593Z,8.10
2022-11-23T06:58:38.138Z,8.10
2022-11-23T07:01:11.934Z,8.09
2022-11-23T07:03:46.054Z,8.09
2022-11-23T07:06:25.511Z,8.10
2022-11-23T07:08:56.992Z,8.09
2022-11-23T07:11:45.503Z,8.08
2022-11-23T07:14:13.994Z,8.08
2022-11-23T07:16:46.518Z,8.09
2022-11-23T07:19:15.696Z,8.08
2022-11-23T07:21:45.955Z,8.08
2022-11-23T07:24:14.331Z,8.08
2022-11-23T07:26:42.851Z,8.08
2022-11-23T07:29:11.846Z,8.08
2022-11-23T07:31:40.529Z,8.09
2022-11-23T07:34:10.990Z,8.09
2022-11-23T07:36:39.586Z,8.09
2022-11-23T07:39:09.397Z,8.10
2022-11-23T07:41:38.265Z,8.11
2022-11-23T07:44:29.164Z,8.12
2022-11-23T07:46:58.092Z,8.13
2022-11-23T07:49:26.397Z,8.13
2022-11-23T07:51:56.140Z,8.14
2022-11-23T07:54:25.834Z,8.16
2022-11-23T07:56:54.110Z,8.18
2022-11-23T07:59:22.427Z,8.20
2022-11-23T08:01:55.631Z,8.24
2022-11-23T08:04:27.101Z,8.26
2022-11-23T08:06:55.448Z,8.30
2022-11-23T08:09:25.144Z,8.32
2022-11-23T08:11:53.437Z,8.36
2022-11-23T08:14:21.853Z,8.38
2022-11-23T08:16:50.831Z,8.40
2022-11-23T08:19:19.447Z,8.42
2022-11-23T08:21:47.733Z,8.43
2022-11-23T08:24:16.070Z,8.45
2022-11-23T08:26:46.101Z,8.46
2022-11-23T08:29:14.414Z,8.47
2022-11-23T08:31:43.100Z,8.49
2022-11-23T08:34:11.452Z,8.52
2022-11-23T08:36:39.794Z,8.52
2022-11-23T08:39:08.728Z,8.53
2022-11-23T08:41:36.970Z,8.54
2022-11-23T08:44:08.384Z,8.54
2022-11-23T08:46:36.856Z,8.54
2022-11-23T08:49:05.877Z,8.54
2022-11-23T08:51:34.957Z,8.55
2022-11-23T08:54:03.297Z,8.56
2022-11-23T08:56:31.616Z,8.57
2022-11-23T08:58:59.966Z,8.56
2022-11-23T09:01:29.731Z,8.58
2022-11-23T09:03:58.247Z,8.60
2022-11-23T09:06:29.136Z,8.61
2022-11-23T09:08:57.658Z,8.62
2022-11-23T09:11:26.512Z,8.64
2022-11-23T09:13:55.145Z,8.67
2022-11-23T09:16:23.446Z,8.69
2022-11-23T09:18:56.663Z,8.70
2022-11-23T09:21:29.330Z,8.74
2022-11-23T09:23:57.792Z,8.76
2022-11-23T09:26:26.884Z,8.78
2022-11-23T09:28:55.154Z,8.80
2022-11-23T09:31:23.851Z,8.84
2022-11-23T09:33:54.718Z,8.85
2022-11-23T09:36:23.660Z,8.90
2022-11-23T09:38:56.523Z,8.91
2022-11-23T09:41:51.517Z,8.95
2022-11-23T09:44:26.380Z,8.97
2022-11-23T09:47:08.413Z,8.99
2022-11-23T09:49:46.536Z,9.01
2022-11-23T09:52:19.226Z,9.03
2022-11-23T09:54:49.631Z,9.03
2022-11-23T09:57:22.716Z,9.05
2022-11-23T09:59:57.158Z,9.04
2022-11-23T10:02:28.770Z,9.03
2022-11-23T10:05:00.934Z,9.01
2022-11-23T10:07:48.225Z,8.97
2022-11-23T10:10:32.410Z,8.95
2022-11-23T10:13:14.872Z,8.93
2022-11-23T10:16:00.669Z,8.94
2022-11-23T10:18:37.361Z,8.97
2022-11-23T10:21:18.338Z,8.99
2022-11-23T10:23:55.306Z,9.03
2022-11-23T10:26:29.857Z,9.06
2022-11-23T10:29:07.720Z,9.09
2022-11-23T10:31:36.781Z,9.11
2022-11-23T10:34:11.854Z,9.13
2022-11-23T10:36:42.173Z,9.15
2022-11-23T10:39:21.056Z,9.16
2022-11-23T10:41:50.732Z,9.16
2022-11-23T10:44:32.749Z,9.17
2022-11-23T10:47:01.560Z,9.18
2022-11-23T10:49:32.981Z,9.19
2022-11-23T10:52:05.488Z,9.23
2022-11-23T10:54:36.947Z,9.24
2022-11-23T10:57:23.411Z,9.26
2022-11-23T10:59:59.015Z,9.29
2022-11-23T11:02:27.900Z,9.29
2022-11-23T11:05:15.476Z,9.32
2022-11-23T11:07:45.228Z,9.33
2022-11-23T11:10:34.971Z,9.33
2022-11-23T11:13:03.573Z,9.32
2022-11-23T11:15:31.881Z,9.34
2022-11-23T11:18:00.615Z,9.34
2022-11-23T11:20:34.454Z,9.35
2022-11-23T11:23:17.323Z,9.38
2022-11-23T11:25:46.364Z,9.41
2022-11-23T11:28:25.603Z,9.44
2022-11-23T11:31:05.154Z,9.47
2022-11-23T11:33:42.099Z,9.50
2022-11-23T11:36:17.003Z,9.54
2022-11-23T11:39:15.008Z,9.57
2022-11-23T11:41:41.817Z,9.59
2022-11-23T11:44:18.367Z,9.63
2022-11-23T11:46:50.992Z,9.66
2022-11-23T11:49:25.371Z,9.69
2022-11-23T11:51:59.376Z,9.72
2022-11-23T11:54:36.090Z,9.74
2022-11-23T11:57:08.370Z,9.74
2022-11-23T11:59:42.844Z,9.75
2022-11-23T12:02:19.327Z,9.75
2022-11-23T12:04:55.045Z,9.77
2022-11-23T12:07:28.534Z,9.78
2022-11-23T12:10:05.836Z,9.81
2022-11-23T12:12:36.833Z,9.83
2022-11-23T12:15:20.499Z,9.83
2022-11-23T12:18:31.543Z,9.83
2022-11-23T12:21:04.798Z,9.86
2022-11-23T12:23:49.032Z,9.87
2022-11-23T12:26:27.581Z,9.87
2022-11-23T12:29:17.071Z,9.87
2022-11-23T12:31:50.524Z,9.92
2022-11-23T12:34:37.899Z,9.92
2022-11-23T12:37:30.642Z,9.92
2022-11-23T12:40:15.177Z,9.91
2022-11-23T12:42:48.263Z,9.95
2022-11-23T12:45:23.656Z,9.93
2022-11-23T12:48:01.075Z,9.96
2022-11-23T12:50:36.370Z,9.98
2022-11-23T12:53:20.833Z,10.00
2022-11-23T12:55:54.295Z,10.01
2022-11-23T12:58:27.061Z,10.03
2022-11-23T13:01:00.785Z,10.03
2022-11-23T13:04:01.009Z,10.03
2022-11-23T13:10:13.986Z,10.11
2022-11-23T13:13:01.685Z,10.18
2022-11-23T13:15:48.092Z,10.20
2022-11-23T13:18:28.383Z,10.23
2022-11-23T13:21:09.704Z,10.26
2022-11-23T13:23:39.522Z,10.27
2022-11-23T13:26:15.726Z,10.30
2022-11-23T13:28:44.958Z,10.34
2022-11-23T13:31:24.721Z,10.32
2022-11-23T13:33:55.774Z,10.36
2022-11-23T13:37:11.243Z,10.33
2022-11-23T13:40:06.475Z,10.30
2022-11-23T13:42:36.060Z,10.27
2022-11-23T13:45:25.509Z,10.26
2022-11-23T13:48:41.223Z,10.26
2022-11-23T13:51:05.856Z,10.25
2022-11-23T13:53:36.615Z,10.23
2022-11-23T13:56:24.028Z,10.21
2022-11-23T13:58:55.313Z,10.16
2022-11-23T14:02:01.508Z,10.11
2022-11-23T14:04:33.021Z,10.06
2022-11-23T14:07:06.680Z,10.04
2022-11-23T14:09:50.411Z,10.02
2022-11-23T14:12:26.797Z,10.00
2022-11-23T14:14:59.562Z,9.99
2022-11-23T14:17:55.876Z,9.97
2022-11-23T14:20:53.529Z,9.95
2022-11-23T14:23:51.075Z,9.93
2022-11-23T14:26:34.799Z,9.91
2022-11-23T14:29:41.408Z,9.89
2022-11-23T14:32:22.673Z,9.87
2022-11-23T14:34:58.408Z,9.84
2022-11-23T14:37:34.304Z,9.79
2022-11-23T14:40:11.664Z,9.76
2022-11-23T14:42:45.062Z,9.74
2022-11-23T14:45:15.462Z,9.72
2022-11-23T14:47:44.082Z,9.69
2022-11-23T14:50:23.234Z,9.69
2022-11-23T14:52:54.210Z,9.67
2022-11-23T14:55:25.490Z,9.65
2022-11-23T14:57:59.306Z,9.67
2022-11-23T15:00:32.659Z,9.63
2022-11-23T15:03:34.486Z,9.62
2022-11-23T15:06:02.707Z,9.63
2022-11-23T15:08:41.456Z,9.64
2022-11-23T15:11:15.252Z,9.64
2022-11-23T15:13:45.324Z,9.63
2022-11-23T15:16:15.944Z,9.64
2022-11-23T15:18:45.038Z,9.62
2022-11-23T15:21:26.630Z,9.62
2022-11-23T15:23:59.996Z,9.60
2022-11-23T15:29:36.803Z,9.57
2022-11-23T15:32:30.621Z,9.56
2022-11-23T15:35:02.680Z,9.53
2022-11-23T15:37:32.405Z,9.51
2022-11-23T15:40:02.364Z,9.49
2022-11-23T15:42:30.962Z,9.47
2022-11-23T15:44:59.324Z,9.45
2022-11-23T15:47:30.912Z,9.43
2022-11-23T15:50:02.744Z,9.41
2022-11-23T15:52:35.800Z,9.35
2022-11-23T15:55:10.469Z,9.31
2022-11-23T15:57:40.472Z,9.24
2022-11-23T16:00:21.847Z,9.19
2022-11-23T16:02:50.708Z,9.14
2022-11-23T16:05:22.188Z,9.08
2022-11-23T16:07:52.707Z,9.03
2022-11-23T16:10:25.842Z,8.98
2022-11-23T16:12:55.706Z,8.93
2022-11-23T16:15:41.852Z,8.88
2022-11-23T16:18:22.459Z,8.81
2022-11-23T16:20:53.603Z,8.77
2022-11-23T16:23:24.575Z,8.73
2022-11-23T16:26:02.674Z,8.69
2022-11-23T16:28:33.042Z,8.66
2022-11-23T16:31:01.987Z,8.63
2022-11-23T16:33:31.223Z,8.60
2022-11-23T16:35:59.564Z,8.58
2022-11-23T16:38:27.924Z,8.54
2022-11-23T16:40:56.410Z,8.52
2022-11-23T16:43:26.186Z,8.50
2022-11-23T16:45:55.537Z,8.48
2022-11-23T16:48:41.200Z,8.47
2022-11-23T16:51:14.100Z,8.44
2022-11-23T16:54:11.888Z,8.41
2022-11-23T16:56:32.070Z,8.39
2022-11-23T16:59:01.929Z,8.36
2022-11-23T17:01:32.454Z,8.35
2022-11-23T17:04:01.049Z,8.33
2022-11-23T17:06:29.496Z,8.32
2022-11-23T17:09:06.156Z,8.32
2022-11-23T17:11:38.714Z,8.30
2022-11-23T17:14:18.162Z,8.29
2022-11-23T17:16:48.233Z,8.28
2022-11-23T17:19:17.764Z,8.28
2022-11-23T17:21:47.272Z,8.25
2022-11-23T17:24:15.951Z,8.24
2022-11-23T17:26:46.425Z,8.23
2022-11-23T17:29:19.475Z,8.21
2022-11-23T17:31:48.457Z,8.20
2022-11-23T17:34:17.231Z,8.18
2022-11-23T17:36:47.045Z,8.19
2022-11-23T17:39:18.963Z,8.19
2022-11-23T17:41:48.009Z,8.20
2022-11-23T17:44:18.426Z,8.20
2022-11-23T17:46:47.949Z,8.19
2022-11-23T17:49:19.927Z,8.17
2022-11-23T17:51:48.203Z,8.15
2022-11-23T17:54:16.489Z,8.15
2022-11-23T17:56:44.801Z,8.14
2022-11-23T17:59:13.341Z,8.13
2022-11-23T18:01:42.981Z,8.12
2022-11-23T18:04:11.640Z,8.10
2022-11-23T18:06:40.090Z,8.08
2022-11-23T18:09:11.829Z,8.07
2022-11-23T18:11:40.189Z,8.05
2022-11-23T18:14:09.019Z,8.05
2022-11-23T18:16:37.435Z,8.04
2022-11-23T18:19:07.175Z,8.02
2022-11-23T18:21:35.672Z,8.00
2022-11-23T18:24:04.827Z,7.99
2022-11-23T18:26:33.442Z,7.97
2022-11-23T18:29:02.045Z,7.97
2022-11-23T18:31:30.428Z,7.97
2022-11-23T18:33:58.990Z,7.96
2022-11-23T18:36:29.012Z,7.95
2022-11-23T18:38:57.937Z,7.95
2022-11-23T18:41:26.480Z,7.95
2022-11-23T18:43:54.811Z,7.95
2022-11-23T18:46:23.299Z,7.95
2022-11-23T18:48:52.098Z,7.94
2022-11-23T18:51:20.382Z,7.94
2022-11-23T18:53:51.371Z,7.95
2022-11-23T18:56:20.423Z,7.94
2022-11-23T18:58:48.920Z,7.94
2022-11-23T19:01:19.175Z,7.94
2022-11-23T19:03:49.370Z,7.95
2022-11-23T19:06:19.652Z,7.96
2022-11-23T19:08:53.406Z,7.94
2022-11-23T19:11:23.452Z,7.95
2022-11-23T19:13:54.157Z,7.96
2022-11-23T19:16:24.419Z,7.95
2022-11-23T19:18:56.388Z,7.96
2022-11-23T19:21:26.426Z,7.97
2022-11-23T19:23:57.659Z,7.98
2022-11-23T19:26:27.163Z,7.98
2022-11-23T19:28:55.869Z,7.99
2022-11-23T19:31:26.446Z,7.99
2022-11-23T19:33:57.772Z,7.99
2022-11-23T19:36:26.461Z,8.00
2022-11-23T19:38:56.624Z,8.00
2022-11-23T19:41:29.874Z,8.00
2022-11-23T19:44:00.313Z,8.01
2022-11-23T19:46:29.830Z,7.99
2022-11-23T19:48:58.834Z,8.00
2022-11-23T19:51:27.934Z,8.00
2022-11-23T19:53:59.972Z,7.99
2022-11-23T19:56:29.786Z,7.98
2022-11-23T19:58:59.621Z,7.98
2022-11-23T20:01:31.685Z,7.97
2022-11-23T20:04:08.613Z,7.97
2022-11-23T20:06:39.394Z,7.97
2022-11-23T20:09:11.257Z,7.97
2022-11-23T20:11:41.027Z,7.93
2022-11-23T20:14:12.187Z,7.93
2022-11-23T20:16:41.101Z,7.91
2022-11-23T20:19:10.494Z,7.88
2022-11-23T20:21:39.055Z,7.86
2022-11-23T20:24:12.062Z,7.84
2022-11-23T20:26:41.383Z,7.82
2022-11-23T20:29:10.340Z,7.80
2022-11-23T20:31:39.410Z,7.78
2022-11-23T20:34:10.095Z,7.77
2022-11-23T20:36:39.747Z,7.77
2022-11-23T20:39:11.849Z,7.75
2022-11-23T20:41:40.680Z,7.75
2022-11-23T20:44:12.581Z,7.73
2022-11-23T20:49:30.955Z,7.71
2022-11-23T20:51:59.810Z,7.70
2022-11-23T20:54:29.898Z,7.70
2022-11-23T20:57:00.190Z,7.69
2022-11-23T20:59:29.463Z,7.68
2022-11-23T21:01:58.095Z,7.67
2022-11-23T21:04:27.225Z,7.65
2022-11-23T21:06:55.637Z,7.63
2022-11-23T21:09:24.101Z,7.63
2022-11-23T21:12:11.749Z,7.64
2022-11-23T21:14:40.368Z,7.64
2022-11-23T21:17:09.067Z,7.64
2022-11-23T21:19:39.846Z,7.62
2022-11-23T21:22:10.526Z,7.62
2022-11-23T21:24:39.247Z,7.61
2022-11-23T21:27:13.600Z,7.60
2022-11-23T21:29:44.003Z,7.58
2022-11-23T21:32:14.624Z,7.57
2022-11-23T21:34:43.386Z,7.56
2022-11-23T21:37:12.514Z,7.56
2022-11-23T21:39:41.259Z,7.57
2022-11-23T21:42:11.128Z,7.56
2022-11-23T21:44:39.659Z,7.57
2022-11-23T21:47:08.287Z,7.57
2022-11-23T21:49:36.853Z,7.56
2022-11-23T21:52:05.446Z,7.56
2022-11-23T21:54:33.996Z,7.55
2022-11-23T21:57:02.560Z,7.56
2022-11-23T21:59:32.633Z,7.56
2022-11-23T22:02:01.303Z,7.55
2022-11-23T22:04:29.998Z,7.55
2022-11-23T22:06:58.476Z,7.53
2022-11-23T22:09:27.097Z,7.54
2022-11-23T22:11:55.491Z,7.54
2022-11-23T22:14:23.950Z,7.52
2022-11-23T22:16:56.554Z,7.52
2022-11-23T22:19:24.881Z,7.55
2022-11-23T22:21:53.396Z,7.56
2022-11-23T22:24:22.533Z,7.56
2022-11-23T22:26:51.017Z,7.60
2022-11-23T22:29:19.394Z,7.62
2022-11-23T22:31:47.802Z,7.65
2022-11-23T22:34:17.782Z,7.68
2022-11-23T22:36:46.090Z,7.70
2022-11-23T22:39:14.370Z,7.72
2022-11-23T22:41:42.794Z,7.74
2022-11-23T22:44:11.631Z,7.74
2022-11-23T22:46:40.645Z,7.76
2022-11-23T22:49:08.982Z,7.75
2022-11-23T22:51:38.798Z,7.75
2022-11-23T22:54:07.261Z,7.75
2022-11-23T22:56:35.528Z,7.74
2022-11-23T22:59:04.181Z,7.75
2022-11-23T23:01:32.715Z,7.74
2022-11-23T23:04:02.701Z,7.74
2022-11-23T23:06:33.952Z,7.75
2022-11-23T23:09:05.560Z,7.76
2022-11-23T23:11:35.268Z,7.77
2022-11-23T23:14:03.669Z,7.79
2022-11-23T23:16:34.897Z,7.80
2022-11-23T23:19:03.482Z,7.81
2022-11-23T23:21:31.939Z,7.82
2022-11-23T23:24:02.095Z,7.83
2022-11-23T23:26:31.639Z,7.84
2022-11-23T23:29:01.464Z,7.86
2022-11-23T23:31:30.605Z,7.88
2022-11-23T23:34:00.509Z,7.88
2022-11-23T23:36:29.459Z,7.90
2022-11-23T23:38:58.440Z,7.90
2022-11-23T23:41:26.892Z,7.88
2022-11-23T23:43:56.651Z,7.89
2022-11-23T23:46:25.361Z,7.89
2022-11-23T23:48:53.728Z,7.88
2022-11-23T23:51:23.841Z,7.88
2022-11-23T23:53:52.741Z,7.86
2022-11-23T23:56:22.697Z,7.85
2022-11-23T23:58:51.376Z,7.83
